createdAt,value
2022-10-06T00:00:04.713Z,15.26
2022-10-06T00:02:52.729Z,14.89
2022-10-06T00:05:20.877Z,14.63
2022-10-06T00:07:49.658Z,14.40
2022-10-06T00:10:18.357Z,14.19
2022-10-06T00:12:48.837Z,14.01
2022-10-06T00:15:21.245Z,13.84
2022-10-06T00:17:49.828Z,14.41
2022-10-06T00:20:19.171Z,17.13
2022-10-06T00:22:48.941Z,18.12
2022-10-06T00:25:21.006Z,17.09
2022-10-06T00:27:51.535Z,16.14
2022-10-06T00:30:23.190Z,15.52
2022-10-06T00:32:53.821Z,15.10
2022-10-06T00:35:22.199Z,14.79
2022-10-06T00:37:50.271Z,14.53
2022-10-06T00:40:19.827Z,14.30
2022-10-06T00:42:56.964Z,14.08
2022-10-06T00:45:33.224Z,13.87
2022-10-06T00:48:12.971Z,14.44
2022-10-06T00:50:41.683Z,17.31
2022-10-06T00:53:13.847Z,17.93
2022-10-06T00:55:41.896Z,16.85
2022-10-06T00:58:11.295Z,15.96
2022-10-06T01:00:41.856Z,15.35
2022-10-06T01:03:31.709Z,14.92
2022-10-06T01:06:02.645Z,14.56
2022-10-06T01:08:32.683Z,14.30
2022-10-06T01:11:01.041Z,14.07
2022-10-06T01:13:32.287Z,13.85
2022-10-06T01:16:10.604Z,14.27
2022-10-06T01:18:42.971Z,17.05
2022-10-06T01:21:28.232Z,17.83
2022-10-06T01:23:57.400Z,16.66
2022-10-06T01:26:28.176Z,15.77
2022-10-06T01:28:56.873Z,15.18
2022-10-06T01:31:27.014Z,14.75
2022-10-06T01:33:56.180Z,14.40
2022-10-06T01:36:24.557Z,14.09
2022-10-06T01:38:53.140Z,13.83
2022-10-06T01:41:22.851Z,13.59
2022-10-06T01:43:51.128Z,14.00
2022-10-06T01:46:19.443Z,16.55
2022-10-06T01:48:47.681Z,17.80
2022-10-06T01:51:17.392Z,16.82
2022-10-06T01:53:45.563Z,15.81
2022-10-06T01:56:14.350Z,15.10
2022-10-06T01:58:43.247Z,14.59
2022-10-06T02:01:12.509Z,14.20
2022-10-06T02:03:41.127Z,13.89
2022-10-06T02:06:10.728Z,13.63
2022-10-06T02:08:39.249Z,14.01
2022-10-06T02:11:10.941Z,16.61
2022-10-06T02:13:42.319Z,17.83
2022-10-06T02:16:13.947Z,16.78
2022-10-06T02:18:43.894Z,15.67
2022-10-06T02:21:20.766Z,14.92
2022-10-06T02:23:49.479Z,14.41
2022-10-06T02:26:19.162Z,14.04
2022-10-06T02:28:48.123Z,13.74
2022-10-06T02:31:19.310Z,14.07
2022-10-06T02:33:48.394Z,16.67
2022-10-06T02:36:18.578Z,17.79
2022-10-06T02:38:46.893Z,16.74
2022-10-06T02:41:15.270Z,15.74
2022-10-06T02:43:43.443Z,15.05
2022-10-06T02:46:13.747Z,14.57
2022-10-06T02:48:47.165Z,14.20
2022-10-06T02:51:17.598Z,13.90
2022-10-06T02:53:51.089Z,13.63
2022-10-06T02:56:23.057Z,14.12
2022-10-06T02:58:53.479Z,16.81
2022-10-06T03:01:28.970Z,17.53
2022-10-06T03:03:59.552Z,16.39
2022-10-06T03:06:30.536Z,15.44
2022-10-06T03:09:08.702Z,14.76
2022-10-06T03:11:40.768Z,14.28
2022-10-06T03:14:09.861Z,13.91
2022-10-06T03:16:40.697Z,13.61
2022-10-06T03:19:12.761Z,14.03
2022-10-06T03:21:44.323Z,16.67
2022-10-06T03:24:13.205Z,17.58
2022-10-06T03:26:44.453Z,16.50
2022-10-06T03:29:13.003Z,15.48
2022-10-06T03:31:43.854Z,14.76
2022-10-06T03:34:15.424Z,14.24
2022-10-06T03:36:44.522Z,13.84
2022-10-06T03:39:13.000Z,13.53
2022-10-06T03:41:41.594Z,13.91
2022-10-06T03:44:10.884Z,16.51
2022-10-06T03:46:41.475Z,17.47
2022-10-06T03:49:09.798Z,16.41
2022-10-06T03:51:41.038Z,15.42
2022-10-06T03:54:13.105Z,14.71
2022-10-06T03:56:43.426Z,14.21
2022-10-06T03:59:16.074Z,13.82
2022-10-06T04:01:47.405Z,13.50
2022-10-06T04:04:21.465Z,13.92
2022-10-06T04:06:53.017Z,16.49
2022-10-06T04:09:22.830Z,17.28
2022-10-06T04:11:52.848Z,16.20
2022-10-06T04:14:21.839Z,15.22
2022-10-06T04:16:51.041Z,14.55
2022-10-06T04:19:32.630Z,14.01
2022-10-06T04:22:00.902Z,13.64
2022-10-06T04:24:29.895Z,13.33
2022-10-06T04:27:18.754Z,13.68
2022-10-06T04:30:07.739Z,16.81
2022-10-06T04:32:35.991Z,17.10
2022-10-06T04:35:05.761Z,15.94
2022-10-06T04:37:34.283Z,14.98
2022-10-06T04:40:03.890Z,14.30
2022-10-06T04:42:35.299Z,13.80
2022-10-06T04:45:07.784Z,13.40
2022-10-06T04:47:37.321Z,13.63
2022-10-06T04:50:06.355Z,16.06
2022-10-06T04:52:34.384Z,17.23
2022-10-06T04:55:03.582Z,16.20
2022-10-06T04:57:32.679Z,15.11
2022-10-06T05:00:19.897Z,14.38
2022-10-06T05:02:48.891Z,13.80
2022-10-06T05:05:16.963Z,13.40
2022-10-06T05:07:45.943Z,13.66
2022-10-06T05:10:14.642Z,16.14
2022-10-06T05:12:43.326Z,17.21
2022-10-06T05:15:12.011Z,16.19
2022-10-06T05:17:40.185Z,15.19
2022-10-06T05:20:11.227Z,14.50
2022-10-06T05:22:40.117Z,14.01
2022-10-06T05:25:09.643Z,13.61
2022-10-06T05:27:37.798Z,13.27
2022-10-06T05:30:06.601Z,13.60
2022-10-06T05:32:36.222Z,16.09
2022-10-06T05:35:06.543Z,17.40
2022-10-06T05:37:34.694Z,16.45
2022-10-06T05:40:03.067Z,15.41
2022-10-06T05:42:31.446Z,14.71
2022-10-06T05:45:00.439Z,14.20
2022-10-06T05:47:29.023Z,13.84
2022-10-06T05:49:57.094Z,14.16
2022-10-06T05:52:25.164Z,16.57
2022-10-06T05:54:53.236Z,17.67
2022-10-06T05:57:21.409Z,16.68
2022-10-06T05:59:50.403Z,15.69
2022-10-06T06:02:19.246Z,15.01
2022-10-06T06:04:47.777Z,14.53
2022-10-06T06:07:15.947Z,14.15
2022-10-06T06:09:45.662Z,13.85
2022-10-06T06:12:14.650Z,14.16
2022-10-06T06:15:13.544Z,16.91
2022-10-06T06:17:49.501Z,17.71
2022-10-06T06:20:17.881Z,16.61
2022-10-06T06:22:52.216Z,15.68
2022-10-06T06:25:22.010Z,15.02
2022-10-06T06:27:50.285Z,14.57
2022-10-06T06:30:18.458Z,14.21
2022-10-06T06:32:46.940Z,14.49
2022-10-06T06:35:15.217Z,16.97
2022-10-06T06:37:46.601Z,18.31
2022-10-06T06:40:14.967Z,17.32
2022-10-06T06:42:43.013Z,16.31
2022-10-06T06:45:23.169Z,15.57
2022-10-06T06:48:02.505Z,15.10
2022-10-06T06:50:32.524Z,14.79
2022-10-06T06:53:02.743Z,14.52
2022-10-06T06:55:33.373Z,14.92
2022-10-06T06:58:01.957Z,17.47
2022-10-06T07:00:35.257Z,18.81
2022-10-06T07:03:06.291Z,17.83
2022-10-06T07:05:35.694Z,16.77
2022-10-06T07:08:03.971Z,16.01
2022-10-06T07:10:36.343Z,15.50
2022-10-06T07:13:07.179Z,15.12
2022-10-06T07:15:53.924Z,14.86
2022-10-06T07:18:54.831Z,15.45
2022-10-06T07:21:41.435Z,18.41
2022-10-06T07:24:28.044Z,18.47
2022-10-06T07:26:56.111Z,17.25
2022-10-06T07:29:24.393Z,16.49
2022-10-06T07:31:52.767Z,15.99
2022-10-06T07:34:21.554Z,15.65
2022-10-06T07:36:54.439Z,15.40
2022-10-06T07:39:23.022Z,15.20
2022-10-06T07:41:51.605Z,15.56
2022-10-06T07:44:19.780Z,17.93
2022-10-06T07:46:48.875Z,19.41
2022-10-06T07:49:20.120Z,18.61
2022-10-06T07:51:48.806Z,17.61
2022-10-06T07:54:18.720Z,16.95
2022-10-06T07:57:05.634Z,16.48
2022-10-06T07:59:35.035Z,16.18
2022-10-06T08:02:03.285Z,15.96
2022-10-06T08:04:31.383Z,15.98
2022-10-06T08:06:59.559Z,17.93
2022-10-06T08:09:27.628Z,19.79
2022-10-06T08:11:55.802Z,19.21
2022-10-06T08:14:24.389Z,18.29
2022-10-06T08:16:52.765Z,17.61
2022-10-06T08:19:21.458Z,17.15
2022-10-06T08:21:50.135Z,16.82
2022-10-06T08:24:19.844Z,16.56
2022-10-06T08:26:47.916Z,16.36
2022-10-06T08:29:16.196Z,16.89
2022-10-06T08:31:44.395Z,19.40
2022-10-06T08:34:12.569Z,20.21
2022-10-06T08:36:44.931Z,19.34
2022-10-06T08:39:20.356Z,18.50
2022-10-06T08:41:52.216Z,17.99
2022-10-06T08:44:54.976Z,17.61
2022-10-06T08:47:27.476Z,17.27
2022-10-06T08:49:57.391Z,17.11
2022-10-06T08:53:14.135Z,16.98
2022-10-06T08:55:56.407Z,16.89
2022-10-06T08:58:56.231Z,18.65
2022-10-06T09:01:28.648Z,20.65
2022-10-06T09:04:03.560Z,19.83
2022-10-06T09:07:23.000Z,19.01
2022-10-06T09:10:09.714Z,18.30
2022-10-06T09:12:42.078Z,17.91
2022-10-06T09:15:31.352Z,17.65
2022-10-06T09:18:14.682Z,17.42
2022-10-06T09:21:23.610Z,17.26
2022-10-06T09:23:57.314Z,17.13
2022-10-06T09:26:31.409Z,17.80
2022-10-06T09:29:00.235Z,20.47
2022-10-06T09:32:01.267Z,21.45
2022-10-06T09:34:43.039Z,20.37
2022-10-06T09:37:13.822Z,19.49
2022-10-06T09:39:44.109Z,18.98
2022-10-06T09:42:26.302Z,18.61
2022-10-06T09:44:59.811Z,18.31
2022-10-06T09:47:33.619Z,18.07
2022-10-06T09:50:12.269Z,17.90
2022-10-06T09:53:05.504Z,17.77
2022-10-06T09:55:43.538Z,18.02
2022-10-06T09:58:22.634Z,20.47
2022-10-06T10:01:00.445Z,21.79
2022-10-06T10:04:15.648Z,20.96
2022-10-06T10:06:41.837Z,20.06
2022-10-06T10:09:21.318Z,19.69
2022-10-06T10:12:24.979Z,19.45
2022-10-06T10:15:00.240Z,19.30
2022-10-06T10:17:48.954Z,19.23
2022-10-06T10:20:28.515Z,19.16
2022-10-06T10:22:59.353Z,19.08
2022-10-06T10:25:48.209Z,19.06
2022-10-06T10:28:42.981Z,19.05
2022-10-06T10:31:39.346Z,19.99
2022-10-06T10:34:31.075Z,22.17
2022-10-06T10:37:14.295Z,21.58
2022-10-06T10:39:51.275Z,20.83
2022-10-06T10:42:28.343Z,20.34
2022-10-06T10:45:12.300Z,20.01
2022-10-06T10:47:45.081Z,19.75
2022-10-06T10:50:42.647Z,19.56
2022-10-06T10:53:27.408Z,19.36
2022-10-06T10:55:57.117Z,19.26
2022-10-06T10:58:34.609Z,19.21
2022-10-06T11:01:25.414Z,19.86
2022-10-06T11:03:56.886Z,22.62
2022-10-06T11:06:40.194Z,22.91
2022-10-06T11:09:31.509Z,21.95
2022-10-06T11:12:47.401Z,21.17
2022-10-06T11:15:40.356Z,20.62
2022-10-06T11:18:22.459Z,20.30
2022-10-06T11:20:56.160Z,20.05
2022-10-06T11:23:33.140Z,19.85
2022-10-06T11:26:35.941Z,19.66
2022-10-06T11:29:05.023Z,19.47
2022-10-06T11:31:41.515Z,19.34
2022-10-06T11:34:10.789Z,19.21
2022-10-06T11:37:16.646Z,19.10
2022-10-06T11:39:57.188Z,20.16
2022-10-06T11:43:01.736Z,22.83
2022-10-06T11:46:11.516Z,22.93
2022-10-06T11:48:40.770Z,21.83
2022-10-06T11:51:17.666Z,21.24
2022-10-06T11:53:45.836Z,20.84
2022-10-06T11:56:18.221Z,20.55
2022-10-06T11:58:52.222Z,20.32
2022-10-06T12:01:35.396Z,20.15
2022-10-06T12:04:09.478Z,20.01
2022-10-06T12:06:43.428Z,19.90
2022-10-06T12:09:28.409Z,19.82
2022-10-06T12:12:22.310Z,19.75
2022-10-06T12:18:21.638Z,20.91
2022-10-06T12:21:09.780Z,23.07
2022-10-06T12:23:54.846Z,22.51
2022-10-06T12:26:46.161Z,21.71
2022-10-06T12:29:16.793Z,21.16
2022-10-06T12:32:22.446Z,20.86
2022-10-06T12:34:59.683Z,20.60
2022-10-06T12:37:42.434Z,20.43
2022-10-06T12:40:38.679Z,20.27
2022-10-06T12:43:12.591Z,20.13
2022-10-06T12:46:12.759Z,20.02
2022-10-06T12:48:43.869Z,19.91
2022-10-06T12:51:20.887Z,19.83
2022-10-06T12:54:00.273Z,19.78
2022-10-06T12:56:31.961Z,19.73
2022-10-06T12:59:19.253Z,20.41
2022-10-06T13:02:17.647Z,23.08
2022-10-06T13:04:45.703Z,23.62
2022-10-06T13:07:29.123Z,22.70
2022-10-06T13:10:15.651Z,21.92
2022-10-06T13:12:47.484Z,21.39
2022-10-06T13:15:43.345Z,21.03
2022-10-06T13:18:22.142Z,20.72
2022-10-06T13:20:51.658Z,20.48
2022-10-06T13:23:30.150Z,20.28
2022-10-06T13:26:18.613Z,20.10
2022-10-06T13:28:50.165Z,19.93
2022-10-06T13:31:33.700Z,19.81
2022-10-06T13:34:12.530Z,19.68
2022-10-06T13:36:43.256Z,20.07
2022-10-06T13:39:15.732Z,22.42
2022-10-06T13:42:07.048Z,23.35
2022-10-06T13:44:48.329Z,22.40
2022-10-06T13:47:19.266Z,21.65
2022-10-06T13:49:47.444Z,21.19
2022-10-06T13:52:23.592Z,20.87
2022-10-06T13:54:56.308Z,20.61
2022-10-06T13:57:42.072Z,20.41
2022-10-06T14:00:21.291Z,20.21
2022-10-06T14:03:11.081Z,20.04
2022-10-06T14:05:44.785Z,19.87
2022-10-06T14:08:12.723Z,20.01
2022-10-06T14:10:40.723Z,22.14
2022-10-06T14:13:16.051Z,23.72
2022-10-06T14:15:53.861Z,23.05
2022-10-06T14:18:28.693Z,22.09
2022-10-06T14:20:57.482Z,21.44
2022-10-06T14:23:42.142Z,21.04
2022-10-06T14:26:13.166Z,20.72
2022-10-06T14:28:46.886Z,20.48
2022-10-06T14:31:15.802Z,20.27
2022-10-06T14:33:43.847Z,20.09
2022-10-06T14:36:27.484Z,19.93
2022-10-06T14:38:57.971Z,19.77
2022-10-06T14:41:28.749Z,19.63
2022-10-06T14:43:58.869Z,20.15
2022-10-06T14:46:27.422Z,22.58
2022-10-06T14:48:57.341Z,23.89
2022-10-06T14:51:27.337Z,23.12
2022-10-06T14:53:58.013Z,22.14
2022-10-06T14:56:32.140Z,21.47
2022-10-06T14:59:02.859Z,21.02
2022-10-06T15:01:33.472Z,20.70
2022-10-06T15:04:07.807Z,20.44
2022-10-06T15:06:54.825Z,20.22
2022-10-06T15:09:24.021Z,19.99
2022-10-06T15:11:54.148Z,19.82
2022-10-06T15:14:26.103Z,20.31
2022-10-06T15:16:54.988Z,22.75
2022-10-06T15:19:23.166Z,23.67
2022-10-06T15:21:51.443Z,22.75
2022-10-06T15:24:19.925Z,21.87
2022-10-06T15:27:07.042Z,21.26
2022-10-06T15:29:35.433Z,20.78
2022-10-06T15:32:06.702Z,20.45
2022-10-06T15:34:37.194Z,20.17
2022-10-06T15:37:06.193Z,19.93
2022-10-06T15:39:38.048Z,20.42
2022-10-06T15:42:06.972Z,22.79
2022-10-06T15:44:35.781Z,23.65
2022-10-06T15:47:07.781Z,22.71
2022-10-06T15:49:40.664Z,21.81
2022-10-06T15:52:12.024Z,21.18
2022-10-06T15:54:41.223Z,20.74
2022-10-06T15:57:18.105Z,20.41
2022-10-06T15:59:48.836Z,20.09
2022-10-06T16:02:19.943Z,20.40
2022-10-06T16:04:55.933Z,22.69
2022-10-06T16:07:24.211Z,23.74
2022-10-06T16:09:52.889Z,22.81
2022-10-06T16:12:23.122Z,21.87
2022-10-06T16:14:52.008Z,21.21
2022-10-06T16:17:20.492Z,20.76
2022-10-06T16:19:48.872Z,20.42
2022-10-06T16:22:19.416Z,20.12
2022-10-06T16:24:47.467Z,20.62
2022-10-06T16:27:16.050Z,22.82
2022-10-06T16:29:44.124Z,23.47
2022-10-06T16:32:12.481Z,22.48
2022-10-06T16:34:40.572Z,21.55
2022-10-06T16:37:08.654Z,20.91
2022-10-06T16:39:36.641Z,20.42
2022-10-06T16:42:04.990Z,20.06
2022-10-06T16:44:33.167Z,20.27
2022-10-06T16:47:01.285Z,22.43
2022-10-06T16:49:29.412Z,23.34
2022-10-06T16:51:57.485Z,22.42
2022-10-06T16:54:25.964Z,21.50
2022-10-06T16:56:58.643Z,20.87
2022-10-06T16:59:27.123Z,20.40
2022-10-06T17:01:55.195Z,20.03
2022-10-06T17:04:25.182Z,20.21
2022-10-06T17:06:55.150Z,22.30
2022-10-06T17:09:25.367Z,23.40
2022-10-06T17:11:55.878Z,22.46
2022-10-06T17:14:24.443Z,21.44
2022-10-06T17:16:55.088Z,20.72
2022-10-06T17:19:25.929Z,20.18
2022-10-06T17:21:58.581Z,20.22
2022-10-06T17:24:29.231Z,22.26
2022-10-06T17:26:58.433Z,23.28
2022-10-06T17:29:26.631Z,22.32
2022-10-06T17:31:59.716Z,21.31
2022-10-06T17:34:33.545Z,20.55
2022-10-06T17:37:02.914Z,20.00
2022-10-06T17:39:31.081Z,20.19
2022-10-06T17:41:59.672Z,22.37
2022-10-06T17:44:29.581Z,23.20
2022-10-06T17:47:00.366Z,22.16
2022-10-06T17:49:32.893Z,21.14
2022-10-06T17:52:01.268Z,20.42
2022-10-06T17:54:32.821Z,19.91
2022-10-06T17:59:46.374Z,22.57
2022-10-06T18:02:14.483Z,22.97
2022-10-06T18:04:42.925Z,21.92
2022-10-06T18:07:10.998Z,21.00
2022-10-06T18:09:40.510Z,20.35
2022-10-06T18:12:10.619Z,19.86
2022-10-06T18:14:38.691Z,20.13
2022-10-06T18:17:06.727Z,22.36
2022-10-06T18:19:36.370Z,23.03
2022-10-06T18:22:10.722Z,21.98
2022-10-06T18:24:40.355Z,21.01
2022-10-06T18:27:08.880Z,20.35
2022-10-06T18:29:38.855Z,19.88
2022-10-06T18:37:44.454Z,22.73
2022-10-06T18:40:15.013Z,21.60
2022-10-06T18:42:43.227Z,20.70
2022-10-06T18:45:33.207Z,20.07
2022-10-06T18:48:22.538Z,19.55
2022-10-06T18:51:03.755Z,20.93
2022-10-06T18:53:35.987Z,22.86
2022-10-06T18:56:05.388Z,22.30
2022-10-06T18:58:41.552Z,21.15
2022-10-06T19:01:09.794Z,20.25
2022-10-06T19:03:38.101Z,19.66
2022-10-06T19:06:07.227Z,19.87
2022-10-06T19:08:36.190Z,22.07
2022-10-06T19:11:38.974Z,22.91
2022-10-06T19:14:47.435Z,21.36
2022-10-06T19:17:16.384Z,20.42
2022-10-06T19:19:51.475Z,19.75
2022-10-06T19:22:24.843Z,19.23
2022-10-06T19:24:52.991Z,19.55
2022-10-06T19:27:25.675Z,21.72
2022-10-06T19:29:56.718Z,22.22
2022-10-06T19:32:28.365Z,21.15
2022-10-06T19:34:59.026Z,20.16
2022-10-06T19:37:28.604Z,19.47
2022-10-06T19:39:56.889Z,18.95
2022-10-06T19:42:43.494Z,19.18
2022-10-06T19:45:12.356Z,21.58
2022-10-06T19:47:40.957Z,21.92
2022-10-06T19:50:12.609Z,20.82
2022-10-06T19:52:42.274Z,19.84
2022-10-06T19:55:10.499Z,19.16
2022-10-06T19:57:38.468Z,18.66
2022-10-06T20:00:07.665Z,18.26
2022-10-06T20:02:43.458Z,18.67
2022-10-06T20:05:13.843Z,21.02
2022-10-06T20:07:45.637Z,21.70
2022-10-06T20:10:15.001Z,20.63
2022-10-06T20:12:43.076Z,19.65
2022-10-06T20:15:13.090Z,18.96
2022-10-06T20:17:42.579Z,18.46
2022-10-06T20:20:10.974Z,18.04
2022-10-06T20:22:38.943Z,18.34
2022-10-06T20:25:07.344Z,20.59
2022-10-06T20:27:35.503Z,21.40
2022-10-06T20:30:04.036Z,20.38
2022-10-06T20:32:32.052Z,19.39
2022-10-06T20:35:02.071Z,18.69
2022-10-06T20:37:30.138Z,18.17
2022-10-06T20:40:16.742Z,18.35
2022-10-06T20:42:49.340Z,20.88
2022-10-06T20:45:17.409Z,21.34
2022-10-06T20:47:47.652Z,20.31
2022-10-06T20:50:15.685Z,19.44
2022-10-06T20:52:43.654Z,18.80
2022-10-06T20:55:11.929Z,18.30
2022-10-06T20:57:40.000Z,17.89
2022-10-06T21:00:09.329Z,18.33
2022-10-06T21:02:37.501Z,20.67
2022-10-06T21:05:07.428Z,21.32
2022-10-06T21:07:35.569Z,20.25
2022-10-06T21:10:03.901Z,19.27
2022-10-06T21:12:32.633Z,18.56
2022-10-06T21:15:00.705Z,18.02
2022-10-06T21:17:28.982Z,18.25
2022-10-06T21:19:57.155Z,20.52
2022-10-06T21:22:25.225Z,21.26
2022-10-06T21:24:53.300Z,20.28
2022-10-06T21:27:21.475Z,19.38
2022-10-06T21:29:49.542Z,18.77
2022-10-06T21:32:17.615Z,18.33
2022-10-06T21:34:45.690Z,18.58
2022-10-06T21:37:13.862Z,20.78
2022-10-06T21:39:42.441Z,21.36
2022-10-06T21:42:10.627Z,20.35
2022-10-06T21:44:38.687Z,19.44
2022-10-06T21:47:06.945Z,18.80
2022-10-06T21:49:35.136Z,18.34
2022-10-06T21:52:06.289Z,17.96
2022-10-06T21:54:34.873Z,18.29
2022-10-06T21:57:03.054Z,20.60
2022-10-06T21:59:31.108Z,21.37
2022-10-06T22:01:59.887Z,20.38
2022-10-06T22:04:28.275Z,19.45
2022-10-06T22:06:56.448Z,18.79
2022-10-06T22:09:24.724Z,18.32
2022-10-06T22:11:52.899Z,17.92
2022-10-06T22:14:21.079Z,18.22
2022-10-06T22:16:49.150Z,20.49
2022-10-06T22:19:18.440Z,21.17
2022-10-06T22:21:48.830Z,20.16
2022-10-06T22:24:20.325Z,19.21
2022-10-06T22:26:49.373Z,18.52
2022-10-06T22:29:19.435Z,17.99
2022-10-06T22:31:49.290Z,17.61
2022-10-06T22:34:19.876Z,17.98
2022-10-06T22:36:48.050Z,20.42
2022-10-06T22:39:16.841Z,20.95
2022-10-06T22:41:45.714Z,19.87
2022-10-06T22:44:14.108Z,18.97
2022-10-06T22:46:42.337Z,18.32
2022-10-06T22:49:10.660Z,17.82
2022-10-06T22:51:38.834Z,17.44
2022-10-06T22:54:06.904Z,17.12
2022-10-06T22:56:35.283Z,17.72
2022-10-06T22:59:03.867Z,20.21
2022-10-06T23:01:31.939Z,20.57
2022-10-06T23:04:00.624Z,19.48
2022-10-06T23:06:31.557Z,18.56
2022-10-06T23:09:00.210Z,17.88
2022-10-06T23:11:28.685Z,17.42
2022-10-06T23:13:56.903Z,17.06
2022-10-06T23:16:25.259Z,17.49
2022-10-06T23:18:53.557Z,19.84
2022-10-06T23:21:24.472Z,20.35
2022-10-06T23:23:55.946Z,19.30
2022-10-06T23:26:24.914Z,18.39
2022-10-06T23:28:58.334Z,17.74
2022-10-06T23:31:27.771Z,17.28
2022-10-06T23:33:56.122Z,16.92
2022-10-06T23:36:24.642Z,17.68
2022-10-06T23:38:52.770Z,19.99
2022-10-06T23:41:20.945Z,20.04
2022-10-06T23:43:49.425Z,18.98
2022-10-06T23:46:19.009Z,18.09
2022-10-06T23:48:47.411Z,17.46
2022-10-06T23:51:16.049Z,17.01
2022-10-06T23:53:44.681Z,16.64
2022-10-06T23:56:13.836Z,17.10
2022-10-06T23:58:42.910Z,19.47
